Time;durP1;ratioP1;P1;durP2;ratioP2;P2;SDS_P1;SDS_P2;PMS_P1;PMS_P2;Temp;Humidity;BMP_temperature;BMP_pressure;BME280_temperature;BME280_humidity;BME280_pressure;Samples;Min_cycle;Max_cycle;Signal;HPM_P1;HPM_P2
2023/09/03 00:00:25;;;;;;;7.78;4.50;;;17.20;99.90;;;16.63;100.00;101802.28;4153228;28;20091;-75
2023/09/03 00:02:26;;;;;;;13.75;5.05;;;17.20;99.90;;;16.58;100.00;101803.63;4154221;28;20034;-75
2023/09/03 00:04:27;;;;;;;8.68;4.43;;;17.20;99.90;;;16.61;100.00;101798.97;4153019;28;20092;-75
2023/09/03 00:06:27;;;;;;;8.13;4.53;;;17.20;99.90;;;16.58;100.00;101806.28;4154337;28;20033;-75
2023/09/03 00:08:28;;;;;;;7.90;4.45;;;17.20;99.90;;;16.54;100.00;101796.16;4149225;28;20505;-75
2023/09/03 00:10:30;;;;;;;11.07;4.60;;;17.20;99.90;;;16.52;100.00;101793.59;4152973;28;20045;-75
2023/09/03 00:12:30;;;;;;;9.85;5.28;;;17.20;99.90;;;16.56;100.00;101802.13;4154122;28;20397;-75
2023/09/03 00:14:31;;;;;;;8.95;4.28;;;17.10;99.90;;;16.54;100.00;101798.81;4153923;28;20034;-75
2023/09/03 00:16:32;;;;;;;8.90;4.53;;;17.10;99.90;;;16.53;100.00;101795.28;4154096;28;20405;-75
2023/09/03 00:18:33;;;;;;;8.65;4.78;;;17.10;99.90;;;16.53;100.00;101792.63;4152906;28;20018;-75
2023/09/03 00:20:34;;;;;;;9.05;5.05;;;17.00;99.90;;;16.52;100.00;101790.09;4153821;28;20080;-75
2023/09/03 00:22:35;;;;;;;9.13;4.85;;;17.10;99.90;;;16.49;100.00;101793.94;4153962;28;20109;-75
2023/09/03 00:24:36;;;;;;;10.20;5.45;;;17.10;99.90;;;16.49;100.00;101783.28;4152803;28;20026;-75
2023/09/03 00:26:37;;;;;;;8.82;5.47;;;17.10;99.90;;;16.51;100.00;101785.78;4152929;28;20026;-75
2023/09/03 00:28:37;;;;;;;12.48;5.07;;;17.00;99.90;;;16.51;100.00;101796.44;4153500;28;20045;-75
2023/09/03 00:30:38;;;;;;;9.82;5.30;;;17.10;99.90;;;16.50;100.00;101790.28;4152553;28;20026;-75
2023/09/03 00:32:39;;;;;;;8.27;5.28;;;17.00;99.90;;;16.48;100.00;101786.13;4153883;28;20025;-75
2023/09/03 00:34:40;;;;;;;6.93;4.22;;;17.00;99.90;;;16.46;100.00;101785.44;4152551;28;20541;-75
2023/09/03 00:36:41;;;;;;;7.30;4.68;;;17.00;99.90;;;16.41;100.00;101777.16;4153102;28;20026;-75
2023/09/03 00:38:42;;;;;;;11.15;5.22;;;17.00;99.90;;;16.41;100.00;101777.97;4152416;28;20448;-75
2023/09/03 00:40:43;;;;;;;9.63;5.60;;;17.00;99.90;;;16.42;100.00;101782.31;4153631;28;20033;-75
2023/09/03 00:42:43;;;;;;;12.13;6.35;;;17.00;99.90;;;16.43;100.00;101781.28;4153653;28;20030;-75
2023/09/03 00:44:44;;;;;;;11.48;5.82;;;17.00;99.90;;;16.42;100.00;101782.31;4153327;28;20021;-75
2023/09/03 00:46:46;;;;;;;9.93;5.45;;;17.00;99.90;;;16.42;100.00;101774.31;4153476;28;20026;-75
2023/09/03 00:48:47;;;;;;;10.30;5.53;;;17.00;99.90;;;16.38;100.00;101770.31;4152425;28;20025;-75
2023/09/03 00:50:49;;;;;;;11.15;6.05;;;17.00;99.90;;;16.39;100.00;101766.69;4152473;28;20033;-75
2023/09/03 00:52:50;;;;;;;9.45;5.50;;;16.90;99.90;;;16.41;100.00;101767.31;4152329;28;20578;-75
2023/09/03 00:54:53;;;;;;;13.65;6.70;;;16.90;99.90;;;16.39;100.00;101769.34;4153519;28;20029;-75
2023/09/03 00:56:53;;;;;;;12.07;6.38;;;17.00;99.90;;;16.40;100.00;101768.31;4152244;28;20433;-75
2023/09/03 00:58:55;;;;;;;11.77;6.28;;;17.00;99.90;;;16.37;100.00;101760.66;4152054;28;20026;-75
2023/09/03 01:00:56;;;;;;;9.65;5.10;;;16.90;99.90;;;16.37;100.00;101752.69;4152119;28;20022;-75
2023/09/03 01:02:57;;;;;;;17.35;4.40;;;16.90;99.90;;;16.35;100.00;101760.00;4152280;28;20588;-75
2023/09/03 01:04:58;;;;;;;10.10;5.22;;;16.90;99.90;;;16.32;100.00;101747.03;4152185;28;20026;-75
2023/09/03 01:06:59;;;;;;;9.55;5.63;;;16.90;99.90;;;16.34;100.00;101753.00;4168298;28;20025;-75
2023/09/03 01:09:00;;;;;;;13.05;7.22;;;16.90;99.90;;;16.34;100.00;101753.00;4153287;28;20112;-75
2023/09/03 01:11:35;;;;;;;13.75;6.70;;;16.90;99.90;;;16.32;100.00;101752.38;4151914;28;20083;-75
2023/09/03 01:14:03;;;;;;;15.18;7.30;;;16.90;99.90;;;16.31;100.00;101750.69;4151735;28;20093;-75
2023/09/03 01:16:19;;;;;;;9.98;5.40;;;16.90;99.90;;;16.26;100.00;101749.53;4153093;28;20049;-75
2023/09/03 01:18:24;;;;;;;14.48;6.60;;;16.80;99.90;;;16.25;100.00;101739.88;4152060;28;20058;-75
2023/09/03 01:20:33;;;;;;;11.80;6.32;;;16.80;99.90;;;16.27;100.00;101738.72;4148866;28;20509;-75
2023/09/03 01:23:23;;;;;;;11.80;6.57;;;16.80;99.90;;;16.27;100.00;101745.88;4151703;28;20030;-75
2023/09/03 01:25:48;;;;;;;10.82;5.78;;;16.80;99.90;;;16.23;100.00;101756.03;4153061;28;20081;-75
2023/09/03 01:28:33;;;;;;;10.32;5.43;;;16.80;99.90;;;16.20;100.00;101753.69;4152819;28;20029;-75
2023/09/03 01:30:34;;;;;;;10.40;5.57;;;16.80;99.90;;;16.19;100.00;101746.72;4150203;28;20073;-75
2023/09/03 01:32:37;;;;;;;11.75;5.97;;;16.80;99.90;;;16.20;100.00;101752.88;4151842;28;20053;-75
2023/09/03 01:34:40;;;;;;;8.63;4.88;;;16.80;99.90;;;16.18;100.00;101747.72;4151750;28;20038;-75
2023/09/03 01:36:41;;;;;;;13.80;6.63;;;16.70;99.90;;;16.17;100.00;101746.06;4151032;28;20022;-75
2023/09/03 01:38:42;;;;;;;8.32;5.60;;;16.70;99.90;;;16.17;100.00;101742.56;4151406;28;20037;-75
2023/09/03 01:40:46;;;;;;;10.50;5.82;;;16.70;99.90;;;16.14;100.00;101738.41;4151386;28;20033;-75
2023/09/03 01:42:47;;;;;;;;;;;16.70;99.90;;;16.10;100.00;101737.06;4151616;28;20478;-75
2023/09/03 01:44:47;;;;;;;10.20;5.45;;;16.70;99.90;;;16.11;100.00;101745.88;4152826;28;19913;-75
2023/09/03 01:47:00;;;;;;;15.30;7.25;;;16.70;99.90;;;16.13;100.00;101749.22;4135249;28;20395;-75
2023/09/03 01:49:31;;;;;;;12.65;6.93;;;16.70;99.90;;;16.09;100.00;101748.72;4151716;28;20456;-75
2023/09/03 01:52:23;;;;;;;12.73;7.25;;;16.70;99.90;;;16.08;100.00;101744.41;4151428;28;20076;-75
2023/09/03 01:54:33;;;;;;;12.85;7.13;;;16.70;99.90;;;16.10;100.00;101752.22;4147368;28;20085;-75
2023/09/03 01:56:42;;;;;;;12.98;7.00;;;16.70;99.90;;;16.10;100.00;101758.34;4151529;28;20037;-75
2023/09/03 01:58:48;;;;;;;12.52;7.30;;;16.60;99.90;;;16.09;100.00;101754.06;4151276;28;20583;-75
2023/09/03 02:00:49;;;;;;;11.00;6.97;;;16.60;99.90;;;16.09;100.00;101755.88;4152673;28;20393;-75
2023/09/03 02:02:51;;;;;;;15.00;7.30;;;16.60;99.90;;;16.09;100.00;101759.38;4152474;28;20030;-75
2023/09/03 02:04:52;;;;;;;13.23;6.80;;;16.60;99.90;;;16.08;100.00;101763.03;4151155;28;20097;-75
2023/09/03 02:06:53;;;;;;;11.27;6.63;;;16.60;99.90;;;16.09;100.00;101766.53;4151442;28;20033;-75
2023/09/03 02:08:54;;;;;;;10.18;7.15;;;16.60;99.90;;;16.07;100.00;101764.00;4152659;28;20109;-75
2023/09/03 02:10:55;;;;;;;14.40;7.47;;;16.60;99.90;;;16.07;100.00;101761.34;4152401;28;20022;-75
2023/09/03 02:12:55;;;;;;;10.82;6.18;;;16.60;99.90;;;16.05;100.00;101758.88;4151161;28;20030;-75
2023/09/03 02:14:56;;;;;;;9.43;4.78;;;16.60;99.90;;;16.03;100.00;101760.88;4152500;28;20022;-75
2023/09/03 02:16:57;;;;;;;9.55;6.03;;;16.60;99.90;;;16.02;100.00;101759.22;4152486;28;20018;-75
2023/09/03 02:18:58;;;;;;;13.30;7.40;;;16.50;99.90;;;16.02;100.00;101751.22;4152254;28;20079;-75
2023/09/03 02:20:59;;;;;;;12.52;7.18;;;16.60;99.90;;;15.99;100.00;101756.03;4152299;28;20658;-76
2023/09/03 02:23:00;;;;;;;9.38;4.95;;;16.50;99.90;;;15.99;100.00;101759.53;4152414;28;20402;-75
2023/09/03 02:25:00;;;;;;;10.50;5.90;;;16.60;99.90;;;15.95;100.00;101760.03;4152521;28;20072;-75
2023/09/03 02:27:01;;;;;;;10.23;6.18;;;16.60;99.90;;;15.97;100.00;101766.03;4151137;28;20026;-75
2023/09/03 02:29:02;;;;;;;10.40;5.75;;;16.50;99.90;;;15.94;100.00;101758.38;4151974;28;20022;-75
2023/09/03 02:31:03;;;;;;;14.23;6.78;;;16.50;99.90;;;15.95;100.00;101754.69;4150940;28;20429;-75
2023/09/03 02:33:04;;;;;;;9.27;6.13;;;16.50;99.90;;;15.89;100.00;101742.06;4137294;28;20065;-75
2023/09/03 02:35:05;;;;;;;15.70;7.15;;;16.50;99.90;;;15.93;100.00;101751.38;4148144;28;20113;-75
2023/09/03 02:37:06;;;;;;;14.10;7.57;;;16.50;99.90;;;15.93;100.00;101751.38;4150611;28;20046;-75
2023/09/03 02:39:07;;;;;;;13.85;7.57;;;16.50;99.90;;;15.92;100.00;101755.03;4152159;28;20049;-75
2023/09/03 02:41:08;;;;;;;16.33;8.40;;;16.50;99.90;;;15.95;100.00;101752.03;4151011;28;20580;-75
2023/09/03 02:43:09;;;;;;;19.58;9.48;;;16.50;99.90;;;15.98;100.00;101754.38;4150821;28;20026;-75
2023/09/03 02:45:10;;;;;;;13.13;7.13;;;16.50;99.90;;;15.95;100.00;101746.72;4150963;28;20022;-75
2023/09/03 02:47:10;;;;;;;13.45;8.10;;;16.50;99.90;;;15.92;100.00;101747.03;4151010;28;20581;-75
2023/09/03 02:49:11;;;;;;;15.10;8.75;;;16.50;99.90;;;15.91;100.00;101742.75;4151008;28;20030;-75
2023/09/03 02:51:12;;;;;;;13.13;7.53;;;16.50;99.90;;;15.93;100.00;101740.75;4150929;28;20026;-75
2023/09/03 02:53:13;;;;;;;14.13;8.15;;;16.50;99.90;;;15.92;100.00;101744.38;4152251;28;20084;-75
2023/09/03 02:55:14;;;;;;;17.25;9.48;;;16.50;99.90;;;15.92;100.00;101741.72;4154433;28;20057;-75
2023/09/03 02:57:15;;;;;;;16.27;8.75;;;16.50;99.90;;;15.88;100.00;101735.94;4155433;28;20048;-75
2023/09/03 02:59:16;;;;;;;15.05;8.45;;;16.50;99.90;;;15.92;100.00;101739.06;4153918;28;20030;-75
2023/09/03 03:01:20;;;;;;;16.08;9.27;;;16.40;99.90;;;15.89;100.00;101734.91;4155192;28;20040;-75
2023/09/03 03:03:20;;;;;;;;;;;16.50;99.90;;;15.86;100.00;101731.78;4155704;28;20385;-75
2023/09/03 03:05:21;;;;;;;20.27;9.57;;;16.40;99.90;;;15.85;100.00;101730.09;4155260;28;19917;-75
2023/09/03 03:07:22;;;;;;;11.02;7.10;;;16.40;99.90;;;15.82;100.00;101723.28;4154156;28;20030;-75
2023/09/03 03:09:23;;;;;;;13.75;9.15;;;16.40;99.90;;;15.85;100.00;101722.97;4155158;28;20025;-75
2023/09/03 03:11:25;;;;;;;12.20;7.20;;;16.40;99.90;;;15.81;100.00;101720.78;4155202;28;20478;-75
2023/09/03 03:13:26;;;;;;;13.95;8.70;;;16.40;99.90;;;15.83;100.00;101732.91;4137532;28;20030;-75
2023/09/03 03:15:28;;;;;;;13.32;8.13;;;16.40;99.90;;;15.81;100.00;101720.78;4142640;28;20027;-75
2023/09/03 03:17:29;;;;;;;15.43;9.38;;;16.40;99.90;;;15.79;100.00;101722.78;4154449;28;20090;-75
2023/09/03 03:19:30;;;;;;;14.93;7.53;;;16.40;99.90;;;15.78;100.00;101726.44;4153788;28;20069;-75
2023/09/03 03:21:30;;;;;;;15.07;7.43;;;16.40;99.90;;;15.78;100.00;101718.44;4154915;28;20033;-75
2023/09/03 03:23:33;;;;;;;12.13;7.32;;;16.30;99.90;;;15.75;100.00;101722.28;4154908;28;20540;-75
2023/09/03 03:25:34;;;;;;;18.58;9.20;;;16.30;99.90;;;15.70;100.00;101718.47;4153630;28;20053;-75
2023/09/03 03:27:37;;;;;;;13.43;8.00;;;16.30;99.90;;;15.71;100.00;101717.47;4154971;28;20022;-75
2023/09/03 03:29:38;;;;;;;13.63;7.90;;;16.30;99.90;;;15.68;100.00;101702.66;4154890;28;20036;-75
2023/09/03 03:31:41;;;;;;;13.55;6.68;;;16.30;99.90;;;15.70;100.00;101705.16;4153658;28;20038;-75
2023/09/03 03:33:44;;;;;;;14.25;7.93;;;16.30;99.90;;;15.67;100.00;101711.66;4153491;28;20030;-75
2023/09/03 03:35:44;;;;;;;17.60;8.98;;;16.20;99.90;;;15.66;100.00;101704.66;4151414;28;20038;-75
2023/09/03 03:37:45;;;;;;;18.25;10.20;;;16.20;99.90;;;15.67;100.00;101705.50;4154630;28;20026;-76
2023/09/03 03:39:50;;;;;;;17.33;9.10;;;16.20;99.90;;;15.68;100.00;101701.84;4153496;28;20025;-75
2023/09/03 03:41:51;;;;;;;19.05;9.93;;;16.20;99.90;;;15.65;100.00;101697.66;4154344;28;20041;-75
2023/09/03 03:43:52;;;;;;;15.80;8.32;;;16.20;99.90;;;15.63;100.00;101698.81;4154479;28;20026;-75
2023/09/03 03:45:53;;;;;;;16.35;10.02;;;16.20;99.90;;;15.59;100.00;101690.34;4153444;28;20100;-75
2023/09/03 03:47:53;;;;;;;15.23;8.93;;;16.20;99.90;;;15.60;100.00;101696.50;4154489;28;20029;-75
2023/09/03 03:49:54;;;;;;;16.45;9.88;;;16.20;99.90;;;15.58;100.00;101691.34;4154432;28;20084;-75
2023/09/03 03:51:55;;;;;;;15.93;8.57;;;16.20;99.90;;;15.48;100.00;101672.06;4154546;28;20033;-75
2023/09/03 03:53:59;;;;;;;18.10;8.88;;;16.10;99.90;;;15.58;100.00;101685.19;4154542;28;20039;-75
2023/09/03 03:56:01;;;;;;;15.30;8.10;;;16.10;99.90;;;15.54;100.00;101668.75;4154469;28;20061;-75
2023/09/03 03:58:02;;;;;;;14.43;7.68;;;16.10;99.90;;;15.53;100.00;101674.25;4152954;28;20096;-75
2023/09/03 04:00:03;;;;;;;15.80;8.35;;;16.10;99.90;;;15.52;100.00;101667.25;4153051;28;20033;-75
2023/09/03 04:02:04;;;;;;;13.90;8.60;;;16.10;99.90;;;15.45;100.00;101665.22;4154067;28;20031;-75
2023/09/03 04:04:05;;;;;;;14.00;7.93;;;16.10;99.90;;;15.46;100.00;101671.38;4152702;28;20115;-75
2023/09/03 04:06:07;;;;;;;15.20;8.85;;;16.00;99.90;;;15.46;100.00;101680.19;4154427;28;20022;-75
2023/09/03 04:08:08;;;;;;;18.52;8.93;;;16.00;99.90;;;15.44;100.00;101690.13;4153444;28;20034;-75
2023/09/03 04:10:09;;;;;;;19.75;10.50;;;16.00;99.90;;;15.47;100.00;101692.50;4154325;28;20033;-75
2023/09/03 04:12:10;;;;;;;20.55;10.85;;;16.00;99.90;;;15.50;100.00;101684.19;4154258;28;20085;-75
2023/09/03 04:14:10;;;;;;;22.15;11.70;;;16.10;99.90;;;15.49;100.00;101693.19;4152879;28;20037;-75
2023/09/03 04:16:14;;;;;;;26.83;12.40;;;16.10;99.90;;;15.54;100.00;101699.81;4154262;28;20033;-75
2023/09/03 04:18:15;;;;;;;26.75;12.63;;;16.10;99.90;;;15.58;100.00;101717.13;4153065;28;20075;-75
2023/09/03 04:20:16;;;;;;;22.45;12.35;;;16.10;99.90;;;15.61;100.00;101727.44;4153994;28;20041;-75
2023/09/03 04:22:17;;;;;;;28.08;12.32;;;16.20;99.90;;;15.61;100.00;101724.75;4153971;28;20097;-75
2023/09/03 04:24:17;;;;;;;26.90;12.88;;;16.20;99.90;;;15.62;100.00;101737.88;4152812;28;20041;-76
2023/09/03 04:26:18;;;;;;;26.35;12.93;;;16.20;99.90;;;15.62;100.00;101743.19;4154075;28;20022;-75
2023/09/03 04:28:20;;;;;;;28.08;13.05;;;16.20;99.90;;;15.64;100.00;101751.03;4153612;28;20448;-75
2023/09/03 04:30:21;;;;;;;29.00;14.38;;;16.20;99.90;;;15.63;100.00;101757.34;4152515;28;20022;-75
2023/09/03 04:32:22;;;;;;;24.88;12.95;;;16.20;99.90;;;15.64;100.00;101756.34;4152794;28;20107;-75
2023/09/03 04:34:23;;;;;;;26.50;12.68;;;16.20;99.90;;;15.65;100.00;101763.34;4145811;28;20042;-75
2023/09/03 04:36:24;;;;;;;22.35;11.85;;;16.20;99.90;;;15.59;100.00;101772.78;4149132;28;20030;-76
2023/09/03 04:38:27;;;;;;;27.02;12.40;;;16.20;99.90;;;15.61;100.00;101772.63;4153406;28;20433;-76
2023/09/03 04:40:31;;;;;;;23.92;13.73;;;16.20;99.90;;;15.59;100.00;101780.78;4152676;28;20277;-76
2023/09/03 04:42:32;;;;;;;26.30;13.85;;;16.20;99.90;;;15.61;100.00;101778.78;4152503;28;20034;-76
2023/09/03 04:44:33;;;;;;;25.42;12.52;;;16.20;99.90;;;15.57;100.00;101777.44;4148195;28;20034;-76
2023/09/03 04:46:34;;;;;;;27.85;13.57;;;16.20;99.90;;;15.58;100.00;101787.09;4152362;28;20053;-76
2023/09/03 04:48:35;;;;;;;23.15;13.55;;;16.10;99.90;;;15.55;100.00;101781.28;4141334;28;20093;-76
2023/09/03 04:50:36;;;;;;;24.58;13.98;;;16.10;99.90;;;15.53;100.00;101772.63;4153642;28;20052;-76
2023/09/03 04:52:42;;;;;;;28.52;13.43;;;16.10;99.90;;;15.55;100.00;101784.78;4153557;28;20033;-76
2023/09/03 04:54:43;;;;;;;26.90;14.50;;;16.10;99.90;;;15.53;100.00;101783.28;4153457;28;20049;-76
2023/09/03 04:56:47;;;;;;;29.83;13.45;;;16.10;99.90;;;15.49;100.00;101791.56;4153156;28;20014;-76
2023/09/03 04:58:48;;;;;;;28.15;13.38;;;16.10;99.90;;;15.48;100.00;101795.22;4151284;28;20156;-76
2023/09/03 05:00:49;;;;;;;24.75;12.27;;;16.10;99.90;;;15.46;100.00;101799.00;4158147;28;20021;-75
2023/09/03 05:02:50;;;;;;;27.48;14.40;;;16.10;99.90;;;15.46;100.00;101802.50;4153266;28;20038;-76
2023/09/03 05:04:51;;;;;;;33.10;15.50;;;16.10;99.90;;;15.48;100.00;101813.84;4153463;28;20069;-76
2023/09/03 05:06:51;;;;;;;26.25;13.23;;;16.10;99.90;;;15.52;100.00;101817.00;4153400;28;20030;-76
2023/09/03 05:08:52;;;;;;;32.72;15.15;;;16.10;99.90;;;15.51;100.00;101818.00;4153036;28;20026;-76
2023/09/03 05:10:53;;;;;;;29.60;14.70;;;16.10;99.90;;;15.58;100.00;101818.19;4145751;28;20033;-76
2023/09/03 05:12:54;;;;;;;27.63;15.25;;;16.10;99.90;;;15.60;100.00;101817.03;4153139;28;20025;-76
2023/09/03 05:14:55;;;;;;;37.05;16.45;;;16.20;99.90;;;15.64;100.00;101821.03;4153256;28;20026;-75
2023/09/03 05:16:56;;;;;;;41.30;18.95;;;16.20;99.90;;;15.67;100.00;101819.88;4151185;28;20030;-76
2023/09/03 05:18:57;;;;;;;32.17;15.45;;;16.30;99.90;;;15.70;100.00;101823.03;4150412;28;20041;-75
2023/09/03 05:20:58;;;;;;;27.23;15.20;;;16.30;99.90;;;15.73;100.00;101819.22;4153018;28;20022;-76
2023/09/03 05:22:59;;;;;;;33.97;15.15;;;16.30;99.90;;;15.76;100.00;101816.22;4151971;28;20049;-76
2023/09/03 05:25:00;;;;;;;48.45;17.27;;;16.30;99.90;;;15.78;100.00;101831.03;4153128;28;20025;-76
2023/09/03 05:27:01;;;;;;;27.55;15.80;;;16.40;99.90;;;15.80;100.00;101822.91;4152875;28;20033;-76
2023/09/03 05:29:02;;;;;;;29.85;15.88;;;16.40;99.90;;;15.81;100.00;101825.38;4151670;28;20026;-76
2023/09/03 05:31:03;;;;;;;32.22;16.33;;;16.40;99.90;;;15.82;100.00;101816.41;4153103;28;20061;-75
2023/09/03 05:33:04;;;;;;;24.15;14.18;;;16.40;99.90;;;15.82;100.00;101816.41;4151669;28;20022;-76
2023/09/03 05:35:06;;;;;;;34.25;15.82;;;16.40;99.90;;;15.88;100.00;101817.59;4142175;28;20026;-76
2023/09/03 05:37:07;;;;;;;25.02;14.35;;;16.50;99.90;;;15.88;100.00;101815.75;4136396;28;20022;-76
2023/09/03 05:39:07;;;;;;;23.30;13.13;;;16.50;99.90;;;15.92;100.00;101813.56;4141838;28;20517;-76
2023/09/03 05:41:09;;;;;;;33.22;15.32;;;16.50;99.90;;;15.91;100.00;101818.09;4151592;28;20062;-76
2023/09/03 05:43:10;;;;;;;25.67;14.18;;;16.50;99.90;;;15.95;100.00;101831.88;4151290;28;20029;-76
2023/09/03 05:45:11;;;;;;;28.02;14.73;;;16.50;99.90;;;15.96;100.00;101830.88;4151581;28;20482;-76
2023/09/03 05:47:14;;;;;;;37.35;15.27;;;16.50;99.90;;;15.94;100.00;101830.22;4151037;28;20052;-76
2023/09/03 05:49:15;;;;;;;34.80;15.63;;;16.60;99.90;;;15.97;100.00;101832.56;4152776;28;20101;-76
2023/09/03 05:51:16;;;;;;;48.65;17.52;;;16.60;99.90;;;16.03;100.00;101839.91;4151555;28;20030;-76
2023/09/03 05:53:17;;;;;;;31.98;15.38;;;16.60;99.90;;;16.04;100.00;101830.88;4151520;28;20493;-76
2023/09/03 05:55:17;;;;;;;20.95;13.88;;;16.60;99.90;;;16.09;100.00;101838.41;4148142;28;20449;-76
2023/09/03 05:57:18;;;;;;;22.85;15.05;;;16.60;99.90;;;16.11;100.00;101841.72;4152592;28;20034;-76
2023/09/03 05:59:19;;;;;;;28.77;15.95;;;16.70;99.90;;;16.17;100.00;101847.22;4151216;28;20022;-76
2023/09/03 06:01:20;;;;;;;32.92;17.00;;;16.70;99.90;;;16.20;100.00;101838.91;4151505;28;20030;-76
2023/09/03 06:03:21;;;;;;;27.83;16.08;;;16.80;99.90;;;16.27;100.00;101850.56;4151480;28;20018;-76
2023/09/03 06:05:27;;;;;;;22.35;13.80;;;16.80;99.90;;;16.33;100.00;101855.22;4167676;28;20101;-76
2023/09/03 06:07:28;;;;;;;27.52;15.57;;;16.90;99.90;;;16.37;100.00;101859.19;4162796;28;20104;-76
2023/09/03 06:09:29;;;;;;;30.05;16.33;;;16.90;99.90;;;16.41;100.00;101860.53;4134825;28;20034;-76
2023/09/03 06:11:29;;;;;;;36.50;16.75;;;16.90;99.90;;;16.48;100.00;101860.72;4151099;28;20037;-76
2023/09/03 06:13:33;;;;;;;28.88;16.48;;;17.00;99.90;;;16.48;100.00;101869.53;4151168;28;20080;-76
2023/09/03 06:15:34;;;;;;;23.40;14.40;;;17.00;99.90;;;16.55;100.00;101870.53;4149878;28;20033;-76
2023/09/03 06:17:34;;;;;;;27.45;16.63;;;17.10;99.90;;;16.57;100.00;101875.72;4148265;28;20040;-76
2023/09/03 06:19:35;;;;;;;20.55;12.95;;;17.10;99.90;;;16.62;100.00;101872.53;4151478;28;20485;-76
2023/09/03 06:21:36;;;;;;;26.63;13.73;;;17.20;99.90;;;16.70;100.00;101880.53;4149626;28;20113;-76
2023/09/03 06:23:37;;;;;;;28.38;16.63;;;17.30;99.90;;;16.74;100.00;101884.53;4151170;28;20022;-76
2023/09/03 06:25:38;;;;;;;23.52;14.18;;;17.30;99.90;;;16.76;100.00;101879.84;4151921;28;20029;-76
2023/09/03 06:27:39;;;;;;;30.13;17.15;;;17.30;99.90;;;16.84;100.00;101888.69;4149872;28;20037;-76
2023/09/03 06:29:39;;;;;;;26.98;16.70;;;17.40;99.90;;;16.87;100.00;101882.19;4152426;28;20033;-76
2023/09/03 06:31:40;;;;;;;19.85;13.98;;;17.50;99.90;;;16.93;100.00;101876.19;4152225;28;20034;-75
2023/09/03 06:33:43;;;;;;;21.10;12.93;;;17.50;99.90;;;16.97;100.00;101869.47;4152123;28;20034;-75
2023/09/03 06:35:43;;;;;;;20.15;13.45;;;17.50;99.90;;;17.06;100.00;101865.78;4149094;28;20029;-75
2023/09/03 06:37:44;;;;;;;19.23;12.93;;;17.60;99.90;;;17.13;100.00;101877.47;4145697;28;20031;-76
2023/09/03 06:39:45;;;;;;;20.77;14.05;;;17.70;99.90;;;17.19;100.00;101876.78;4148227;28;20029;-76
2023/09/03 06:41:46;;;;;;;20.80;14.63;;;17.70;99.90;;;17.20;100.00;101866.94;4151926;28;20038;-76
2023/09/03 06:43:54;;;;;;;20.27;13.90;;;17.80;99.90;;;17.25;100.00;101876.09;4150392;28;20026;-76
2023/09/03 06:45:57;;;;;;;19.65;12.65;;;17.80;99.90;;;17.33;100.00;101878.72;4152258;28;20474;-76
2023/09/03 06:47:58;;;;;;;22.23;14.50;;;17.90;99.90;;;17.33;100.00;101878.72;4150373;28;20030;-76
2023/09/03 06:49:59;;;;;;;20.70;14.68;;;17.90;99.90;;;17.38;100.00;101878.22;4146110;28;20030;-76
2023/09/03 06:52:00;;;;;;;19.73;12.35;;;18.00;99.90;;;17.40;100.00;101870.84;4147653;28;20068;-76
2023/09/03 06:54:01;;;;;;;15.75;10.55;;;18.00;99.90;;;17.59;100.00;101883.81;4150216;28;20030;-77
2023/09/03 06:56:03;;;;;;;19.20;13.30;;;18.10;99.90;;;17.62;100.00;101878.16;4148622;28;20065;-77
2023/09/03 06:58:04;;;;;;;19.48;13.65;;;18.20;99.90;;;17.68;100.00;101880.13;4150109;28;20084;-78
2023/09/03 07:00:07;;;;;;;18.63;13.07;;;18.30;99.90;;;17.77;100.00;101878.22;4150933;28;20089;-78
2023/09/03 07:02:08;;;;;;;17.17;11.85;;;18.30;99.90;;;17.81;100.00;101869.69;4152014;28;20034;-78
2023/09/03 07:04:09;;;;;;;16.92;12.38;;;18.30;99.90;;;17.92;100.00;101884.50;4150753;28;20533;-78
2023/09/03 07:06:10;;;;;;;17.83;13.18;;;18.40;99.90;;;17.92;100.00;101879.16;4145069;28;20034;-77
2023/09/03 07:08:11;;;;;;;17.52;12.77;;;18.50;99.90;;;17.97;100.00;101884.78;4146278;28;20026;-77
2023/09/03 07:10:11;;;;;;;13.95;10.95;;;18.50;99.90;;;17.95;100.00;101879.59;4152046;28;20030;-76
2023/09/03 07:12:12;;;;;;;14.25;11.15;;;18.50;99.90;;;17.99;100.00;101878.25;4150722;28;20030;-77
2023/09/03 07:14:13;;;;;;;14.13;11.35;;;18.50;99.90;;;18.02;100.00;101861.88;4151608;28;20034;-77
2023/09/03 07:16:14;;;;;;;14.07;10.00;;;18.60;99.90;;;18.09;100.00;101864.69;4150856;28;20033;-77
2023/09/03 07:18:15;;;;;;;14.65;10.50;;;18.60;99.90;;;18.13;100.00;101871.31;4149495;28;20421;-77
2023/09/03 07:20:16;;;;;;;17.27;12.10;;;18.60;99.90;;;18.12;100.00;101862.50;4151750;28;20101;-78
2023/09/03 07:22:17;;;;;;;15.98;11.82;;;18.60;99.90;;;18.15;100.00;101870.13;4151759;28;20088;-77
2023/09/03 07:24:18;;;;;;;15.35;11.00;;;18.60;99.90;;;18.18;100.00;101864.44;4152005;28;20030;-77
2023/09/03 07:26:19;;;;;;;17.45;11.68;;;18.70;99.90;;;18.29;100.00;101873.88;4150668;28;20026;-77
2023/09/03 07:28:19;;;;;;;12.00;9.77;;;18.80;99.90;;;18.49;100.00;101877.72;4151622;28;20022;-78
2023/09/03 07:30:20;;;;;;;14.85;11.18;;;18.90;99.90;;;18.56;100.00;101883.19;4151751;28;20472;-77
2023/09/03 07:32:21;;;;;;;15.30;11.80;;;19.00;99.90;;;18.63;100.00;101893.00;4151805;28;20105;-78
2023/09/03 07:34:22;;;;;;;11.00;8.88;;;19.10;99.90;;;18.67;100.00;101880.06;4150735;28;20038;-78
2023/09/03 07:36:23;;;;;;;10.77;8.68;;;19.20;99.90;;;18.76;100.00;101879.81;4126530;28;20089;-77
2023/09/03 07:38:28;;;;;;;14.88;11.35;;;19.20;99.90;;;18.80;100.00;101882.97;4151389;28;20058;-77
2023/09/03 07:40:28;;;;;;;13.70;10.60;;;19.30;99.90;;;18.89;100.00;101887.22;4151084;28;20472;-79
2023/09/03 07:42:29;;;;;;;12.40;8.60;;;19.40;99.90;;;19.02;100.00;101887.44;4154008;28;20070;-79
2023/09/03 07:44:30;;;;;;;12.93;10.18;;;19.40;99.90;;;19.17;100.00;101898.16;4153536;28;20076;-79
2023/09/03 07:46:32;;;;;;;13.45;10.38;;;19.60;99.90;;;19.25;100.00;101890.84;4153167;28;20037;-81
2023/09/03 07:48:34;;;;;;;12.15;8.55;;;19.70;99.90;;;19.27;100.00;101883.47;4154462;28;20026;-77
2023/09/03 07:50:38;;;;;;;11.63;8.93;;;19.80;99.90;;;19.20;100.00;101887.06;4153647;28;20022;-79
2023/09/03 07:52:39;;;;;;;10.82;8.90;;;19.80;99.90;;;19.19;100.00;101896.94;4152870;28;20037;-78
2023/09/03 07:54:40;;;;;;;11.15;8.50;;;19.80;99.90;;;19.14;100.00;101895.84;4152997;28;20030;-78
2023/09/03 07:56:43;;;;;;;11.00;8.27;;;19.70;99.90;;;19.10;100.00;101895.38;4149319;28;20134;-78
2023/09/03 07:58:44;;;;;;;9.82;8.38;;;19.70;99.90;;;19.13;100.00;101903.03;4142394;28;20030;-79
2023/09/03 08:00:46;;;;;;;8.15;6.75;;;19.70;99.90;;;19.11;100.00;101901.56;4152414;28;20034;-81
2023/09/03 08:02:46;;;;;;;11.02;8.45;;;19.70;99.90;;;19.12;100.00;101897.84;4169482;28;20037;-80
2023/09/03 08:04:47;;;;;;;11.35;9.23;;;19.70;99.90;;;19.10;100.00;101899.88;4151981;28;20519;-79
2023/09/03 08:06:57;;;;;;;11.40;9.23;;;19.70;99.90;;;19.08;100.00;101885.88;4152302;28;20030;-78
2023/09/03 08:08:58;;;;;;;9.52;7.45;;;19.70;99.90;;;19.05;100.00;101888.91;4146814;28;20037;-79
2023/09/03 08:11:00;;;;;;;10.93;8.25;;;19.70;99.90;;;19.06;100.00;101886.03;4151630;28;20038;-79
2023/09/03 08:13:03;;;;;;;11.43;8.75;;;19.60;99.90;;;19.10;100.00;101891.84;4147637;28;20029;-81
2023/09/03 08:15:05;;;;;;;8.80;7.22;;;19.70;99.90;;;19.10;100.00;101890.03;4144204;28;20037;-79
2023/09/03 08:17:06;;;;;;;14.55;10.70;;;19.70;99.90;;;19.07;100.00;101894.91;4150501;28;20058;-80